Chesapeake Coast — WDF9286 — position and weather

sailwx.info

Track history (hours):
 
Tides and Currents Weather Stations Pressure Air Temp Water Temp Dewpoint Dewpoint Depression Visibility Wind Speed Wind Dir Waves Ship Positions

Chesapeake Coast

Owner: Dann Marine Towing, LC, Chesapeake City, MD. More information available from US FCC via Universal Licensing System.

Last reported at 2017-Sep-22 02:00 UTC. Time now 2017-Sep-22 18:56 UTC.
Position N 40°40' W 074°00'.

Length 30 m; draft 3.8 m.

Type: Tug. MMSI: 366782000.

Date/timePositionNaut miles runAvg speedWind from/ knotsBaromVisibWave heightAir tempDewpointWater temp
2017-Sep-22 02:00N 40°40' W 074°00'0 0.0
2017-Sep-22 01:30N 40°40' W 074°00'1 1.9
2017-Sep-22 01:00N 40°39' W 074°01'4 8.9
2017-Sep-22 00:30N 40°39' W 074°07'0 0.0
2017-Sep-22 00:00N 40°39' W 074°07'0 0.0
2017-Sep-21 23:30N 40°39' W 074°07'0 0.0
2017-Sep-21 23:00N 40°39' W 074°07'0 0.0
2017-Sep-21 22:30N 40°39' W 074°07'0 0.0
2017-Sep-21 22:00N 40°39' W 074°07'0 0.0
2017-Sep-21 21:30N 40°39' W 074°07'0 0.0
2017-Sep-21 21:00N 40°39' W 074°07'0 0.0
2017-Sep-21 20:30N 40°39' W 074°07'0 0.0
2017-Sep-21 20:00N 40°39' W 074°07'0 0.0
2017-Sep-21 19:30N 40°39' W 074°07'3 5.2
2017-Sep-21 19:00N 40°39' W 074°04'3 5.6
2017-Sep-21 18:30N 40°40' W 074°00'1 2.7
2017-Sep-21 18:00N 40°39' W 074°02'3 5.4
2017-Sep-21 17:30N 40°39' W 074°05'2 3.2
2017-Sep-21 17:00N 40°39' W 074°03'3 6.2
2017-Sep-21 16:30N 40°41' W 074°00'2 4.0
2017-Sep-21 16:00N 40°40' W 074°02'510.5
2017-Sep-21 15:31N 40°39' W 074°09'2 4.8
2017-Sep-21 15:00N 40°41' W 074°09'2 3.4
2017-Sep-21 14:30N 40°39' W 074°09'4 8.2
2017-Sep-21 14:00N 40°39' W 074°03'2 4.9
2017-Sep-21 13:30N 40°40' W 074°00'0 0.6
2017-Sep-21 13:00N 40°40' W 074°00'0 0.0
2017-Sep-21 12:30N 40°40' W 074°00'3 6.3
2017-Sep-21 12:00N 40°39' W 074°04'3 5.0
2017-Sep-21 11:30N 40°39' W 074°07'0 0.0
2017-Sep-21 11:00N 40°39' W 074°07'0 0.0
2017-Sep-21 10:30N 40°39' W 074°07'1 3.0
2017-Sep-21 10:00N 40°39' W 074°05'0 0.3
2017-Sep-21 09:30N 40°39' W 074°06'1 2.3
2017-Sep-21 09:00N 40°39' W 074°07'0 0.5
2017-Sep-21 08:30N 40°39' W 074°07'3 6.1
2017-Sep-21 08:00N 40°42' W 074°08'0 0.7
2017-Sep-21 07:30N 40°42' W 074°09'0 0.2
2017-Sep-21 07:00N 40°42' W 074°09'4 7.1
2017-Sep-21 06:30N 40°39' W 074°11'6 7.5
2017-Sep-21 05:46N 40°33' W 074°13'1 0.9
2017-Sep-21 04:12N 40°33' W 074°15'3 7.8
2017-Sep-21 03:52N 40°35' W 074°13'3 8.4
2017-Sep-21 03:29N 40°38' W 074°12'4 7.9
2017-Sep-21 03:01N 40°39' W 074°07'0 0.1
2017-Sep-21 02:30N 40°39' W 074°07'0 0.0
2017-Sep-21 02:00N 40°39' W 074°07'3 6.3
2017-Sep-21 01:30N 40°39' W 074°03'2 4.7
2017-Sep-21 01:00N 40°40' W 074°00'3 6.4
2017-Sep-21 00:30N 40°39' W 074°05'1 1.7
2017-Sep-21 00:00N 40°39' W 074°06'3 5.6
2017-Sep-20 23:30N 40°41' W 074°08'0 0.5
2017-Sep-20 23:00N 40°41' W 074°09'0 0.4
2017-Sep-20 22:30N 40°41' W 074°09'2 3.7
2017-Sep-20 22:00N 40°39' W 074°09'4 8.4
2017-Sep-20 21:30N 40°39' W 074°03'2 4.9
2017-Sep-20 21:00N 40°40' W 074°00'2 4.6
2017-Sep-20 20:30N 40°39' W 074°03'3 5.6
2017-Sep-20 20:00N 40°39' W 074°07'0 0.0
2017-Sep-20 19:30N 40°39' W 074°07'1 3.0
2017-Sep-20 19:00N 40°39' W 074°05'2 3.9
2017-Sep-20 18:30N 40°39' W 074°02'2 3.9
2017-Sep-20 18:00N 40°40' W 074°00'0 0.0
2017-Sep-20 17:30N 40°40' W 074°00'1 2.8
2017-Sep-20 17:00N 40°39' W 074°02'3 6.0
2017-Sep-20 16:30N 40°39' W 074°06'1 2.4
2017-Sep-20 16:00N 40°39' W 074°07'0 0.0
2017-Sep-20 15:30N 40°39' W 074°07'0 0.0
2017-Sep-20 15:00N 40°39' W 074°07'0 0.0
2017-Sep-20 14:00N 40°39' W 074°07'3 5.8
2017-Sep-20 13:29N 40°39' W 074°11'7 2.5
2017-Sep-20 10:53N 40°33' W 074°15'3 8.3
2017-Sep-20 10:30N 40°35' W 074°12'4 7.6
2017-Sep-20 10:00N 40°39' W 074°10'2 5.0
2017-Sep-20 09:30N 40°39' W 074°07'1 1.3
2017-Sep-20 09:00N 40°39' W 074°08'3 5.3
2017-Sep-20 08:30N 40°38' W 074°12'5 7.6
2017-Sep-20 07:50N 40°33' W 074°13'1 2.1
2017-Sep-20 07:30N 40°33' W 074°14'0 0.1
2017-Sep-20 06:59N 40°33' W 074°14'0 0.1
2017-Sep-20 06:02N 40°33' W 074°15'0 0.9
2017-Sep-20 05:59N 40°33' W 074°14'4 8.6
2017-Sep-20 05:30N 40°37' W 074°12'4 8.2
2017-Sep-20 05:00N 40°39' W 074°07'0 0.1
2017-Sep-20 04:30N 40°39' W 074°07'0 0.0
2017-Sep-20 04:00N 40°39' W 074°07'0 0.0
2017-Sep-20 03:30N 40°39' W 074°07'0 0.0
2017-Sep-20 03:00N 40°39' W 074°07'0 0.0
2017-Sep-20 02:30N 40°39' W 074°07'0 0.0
2017-Sep-20 02:00N 40°39' W 074°07'0 0.0
2017-Sep-20 01:30N 40°39' W 074°07'0 0.1
2017-Sep-20 01:00N 40°39' W 074°07'1 2.4
2017-Sep-20 00:30N 40°39' W 074°06'0 0.8
2017-Sep-20 00:00N 40°39' W 074°05'3 6.5
2017-Sep-19 23:30N 40°40' W 074°01'0 0.1
2017-Sep-19 23:00N 40°40' W 074°01'4 8.8
2017-Sep-19 22:30N 40°39' W 074°07'2 3.7
2017-Sep-19 22:00N 40°40' W 074°09'0 0.6
2017-Sep-19 21:30N 40°39' W 074°09'2 3.3
2017-Sep-19 21:00N 40°39' W 074°07'1 2.3
2017-Sep-19 20:30N 40°39' W 074°05'0 0.4
2017-Sep-19 20:00N 40°39' W 074°05'1 1.8
2017-Sep-19 19:30N 40°39' W 074°06'0 0.1
2017-Sep-19 19:00N 40°39' W 074°06'0 0.2
2017-Sep-19 18:30N 40°39' W 074°06'0 0.0
2017-Sep-19 18:00N 40°39' W 074°06'1 2.1
2017-Sep-19 17:30N 40°39' W 074°07'0 0.0
2017-Sep-19 17:00N 40°39' W 074°07'0 0.0
2017-Sep-19 16:30N 40°39' W 074°07'0 0.0
2017-Sep-19 16:00N 40°39' W 074°07'0 0.0
2017-Sep-19 15:30N 40°39' W 074°07'0 0.0
2017-Sep-19 15:00N 40°39' W 074°07'0 0.0
2017-Sep-19 14:30N 40°39' W 074°07'0 0.0
2017-Sep-19 14:00N 40°39' W 074°07'0 0.0
2017-Sep-19 13:30N 40°39' W 074°07'0 0.0
2017-Sep-19 13:00N 40°39' W 074°07'0 0.0
2017-Sep-19 12:30N 40°39' W 074°07'0 0.5
2017-Sep-19 12:00N 40°39' W 074°07'0 0.0
2017-Sep-19 11:30N 40°39' W 074°07'1 1.9
2017-Sep-19 11:00N 40°39' W 074°06'1 2.4
2017-Sep-19 10:30N 40°39' W 074°07'0 0.0
2017-Sep-19 10:00N 40°39' W 074°07'0 0.0
2017-Sep-19 09:30N 40°39' W 074°07'0 0.0
2017-Sep-19 09:00N 40°39' W 074°07'4 7.4
2017-Sep-19 08:30N 40°39' W 074°02'2 3.6
2017-Sep-19 08:00N 40°40' W 074°01'3 5.8
2017-Sep-19 07:31N 40°39' W 074°04'1 2.1
2017-Sep-19 07:00N 40°39' W 074°05'0 0.0
2017-Sep-19 06:30N 40°39' W 074°05'0 0.0
2017-Sep-19 06:00N 40°39' W 074°05'0 0.1
2017-Sep-19 05:30N 40°39' W 074°05'1 1.5
2017-Sep-19 05:00N 40°39' W 074°06'0 0.0
2017-Sep-19 04:30N 40°39' W 074°06'0 0.0
2017-Sep-19 04:00N 40°39' W 074°06'1 1.5
2017-Sep-19 03:30N 40°39' W 074°05'2 3.5
2017-Sep-19 03:00N 40°39' W 074°07'0 0.2
2017-Sep-19 02:30N 40°39' W 074°07'0 0.0
2017-Sep-19 02:00N 40°39' W 074°07'0 0.0
2017-Sep-19 01:30N 40°39' W 074°07'0 0.0
2017-Sep-19 01:00N 40°39' W 074°07'0 0.0
2017-Sep-19 00:30N 40°39' W 074°07'0 0.0
2017-Sep-19 00:00N 40°39' W 074°07'1 1.9
2017-Sep-18 23:30N 40°39' W 074°06'3 5.8
2017-Sep-18 23:00N 40°41' W 074°03'2 4.7
2017-Sep-18 22:30N 40°39' W 074°05'3 5.1
2017-Sep-18 22:00N 40°40' W 074°09'0 0.8
2017-Sep-18 21:30N 40°39' W 074°09'3 6.7
2017-Sep-18 21:00N 40°40' W 074°05'0 0.1
2017-Sep-18 20:30N 40°40' W 074°05'0 0.4
2017-Sep-18 20:00N 40°40' W 074°04'2 3.9
2017-Sep-18 19:30N 40°39' W 074°02'2 3.5
2017-Sep-18 19:00N 40°40' W 074°00'3 6.9
2017-Sep-18 18:30N 40°39' W 074°05'0 0.6
2017-Sep-18 18:01N 40°39' W 074°05'1 2.9
2017-Sep-18 17:30N 40°39' W 074°07'0 0.4
2017-Sep-18 17:00N 40°39' W 074°07'0 0.0
2017-Sep-18 16:30N 40°39' W 074°07'0 0.0
2017-Sep-18 16:00N 40°39' W 074°07'0 0.0
2017-Sep-18 15:30N 40°39' W 074°07'0 0.0
2017-Sep-18 15:00N 40°39' W 074°07'0 0.0
2017-Sep-18 14:30N 40°39' W 074°07'1 1.6
2017-Sep-18 14:00N 40°39' W 074°08'3 5.7
2017-Sep-18 13:30N 40°41' W 074°08'2 4.3
2017-Sep-18 13:00N 40°39' W 074°09'3 5.5
2017-Sep-18 12:30N 40°39' W 074°05'0 0.6
2017-Sep-18 12:00N 40°39' W 074°05'2 3.5
2017-Sep-18 11:30N 40°39' W 074°07'0 0.1
2017-Sep-18 11:00N 40°39' W 074°07'0 0.0
2017-Sep-18 10:30N 40°39' W 074°07'0 0.0
2017-Sep-18 10:00N 40°39' W 074°07'0 0.0
2017-Sep-18 09:30N 40°39' W 074°07'0 0.0
2017-Sep-18 09:00N 40°39' W 074°07'0 0.0
2017-Sep-18 08:30N 40°39' W 074°07'0 0.0
2017-Sep-18 08:00N 40°39' W 074°07'0 0.0
2017-Sep-18 07:30N 40°39' W 074°07'0 0.0
2017-Sep-18 07:00N 40°39' W 074°07'0 0.0
2017-Sep-18 06:30N 40°39' W 074°07'0 0.0
2017-Sep-18 06:00N 40°39' W 074°07'0 0.0
2017-Sep-18 05:30N 40°39' W 074°07'5 9.1
2017-Sep-18 05:00N 40°39' W 074°01'1 1.8
2017-Sep-18 04:30N 40°40' W 074°00'0 0.1
2017-Sep-18 04:00N 40°40' W 074°00'0 0.2
2017-Sep-18 03:30N 40°40' W 074°00'0 0.0
2017-Sep-18 03:00N 40°40' W 074°00'0 0.0
2017-Sep-18 02:30N 40°40' W 074°00'0 0.0
2017-Sep-18 02:00N 40°40' W 074°01'1 1.2
2017-Sep-18 01:30N 40°40' W 074°01'5 9.3
2017-Sep-18 01:00N 40°39' W 074°07'0 0.3
2017-Sep-18 00:30N 40°38' W 074°07'0 0.0
2017-Sep-18 00:00N 40°38' W 074°07'0 0.0
2017-Sep-17 23:30N 40°38' W 074°07'0 0.0
2017-Sep-17 23:00N 40°38' W 074°07'0 0.0
2017-Sep-17 22:30N 40°38' W 074°07'0 0.0
2017-Sep-17 22:00N 40°38' W 074°07'0 0.0
2017-Sep-17 21:30N 40°38' W 074°07'0 0.0
2017-Sep-17 21:00N 40°38' W 074°07'0 0.0
2017-Sep-17 20:30N 40°38' W 074°07'0 0.0
2017-Sep-17 20:00N 40°38' W 074°07'0 0.0
2017-Sep-17 19:30N 40°38' W 074°07'0 0.0
2017-Sep-17 19:00N 40°38' W 074°07'0 0.0
2017-Sep-17 18:30N 40°38' W 074°07'0 0.0
2017-Sep-17 18:00N 40°38' W 074°07'0 0.0
2017-Sep-17 17:30N 40°38' W 074°07'0 0.0
2017-Sep-17 17:00N 40°38' W 074°07'0 0.0
2017-Sep-17 16:30N 40°38' W 074°07'0 0.0
2017-Sep-17 16:00N 40°38' W 074°07'0 0.0
2017-Sep-17 15:29N 40°38' W 074°07'0 0.0
2017-Sep-17 15:00N 40°38' W 074°07'0 0.0
2017-Sep-17 14:30N 40°38' W 074°07'0 0.0
2017-Sep-17 14:00N 40°38' W 074°07'0 0.0
2017-Sep-17 13:30N 40°38' W 074°07'0 0.0
2017-Sep-17 13:00N 40°38' W 074°07'0 0.0
2017-Sep-17 12:30N 40°38' W 074°07'0 0.0
2017-Sep-17 12:00N 40°38' W 074°07'0 0.0
2017-Sep-17 11:30N 40°38' W 074°07'0 0.0
2017-Sep-17 11:00N 40°38' W 074°07'0 0.0
2017-Sep-17 10:30N 40°38' W 074°07'0 0.0
2017-Sep-17 10:00N 40°38' W 074°07'0 0.0
2017-Sep-17 09:30N 40°38' W 074°07'0 0.0
2017-Sep-17 09:00N 40°38' W 074°07'0 0.0
2017-Sep-17 08:30N 40°38' W 074°07'0 0.0
2017-Sep-17 08:00N 40°38' W 074°07'0 0.0
2017-Sep-17 07:30N 40°38' W 074°07'0 0.0
2017-Sep-17 07:00N 40°38' W 074°07'0 0.0
2017-Sep-17 06:30N 40°38' W 074°07'0 0.0
2017-Sep-17 06:00N 40°38' W 074°07'0 0.7
2017-Sep-17 05:30N 40°39' W 074°08'4 7.2
2017-Sep-17 04:56N 40°36' W 074°12'3 7.4
2017-Sep-17 04:30N 40°33' W 074°14'0 0.1
2017-Sep-17 03:50N 40°33' W 074°14'0 0.5
2017-Sep-17 03:30N 40°33' W 074°14'4 7.9
2017-Sep-17 03:00N 40°37' W 074°12'4 7.6
2017-Sep-17 02:30N 40°39' W 074°08'0 0.7
2017-Sep-17 02:00N 40°38' W 074°07'0 0.0
2017-Sep-17 01:30N 40°38' W 074°07'0 0.0
2017-Sep-17 01:00N 40°38' W 074°07'0 0.0
2017-Sep-17 00:30N 40°38' W 074°07'0 0.0
2017-Sep-17 00:00N 40°38' W 074°07'0 0.0
2017-Sep-16 23:30N 40°38' W 074°07'0 0.0
2017-Sep-16 23:00N 40°38' W 074°07'0 0.0
2017-Sep-16 22:30N 40°38' W 074°07'0 0.0
2017-Sep-16 22:00N 40°38' W 074°07'0 0.0
2017-Sep-16 21:30N 40°38' W 074°07'0 0.0
2017-Sep-16 21:00N 40°38' W 074°07'0 0.0
2017-Sep-16 20:30N 40°38' W 074°07'0 0.0
2017-Sep-16 20:00N 40°38' W 074°07'0 0.0
2017-Sep-16 19:30N 40°38' W 074°07'0 0.3
2017-Sep-16 19:01N 40°39' W 074°07'510.0
2017-Sep-16 18:30N 40°40' W 074°01'0 0.3
2017-Sep-16 18:00N 40°40' W 074°01'4 7.3
2017-Sep-16 17:30N 40°43' W 074°01'3 5.6
2017-Sep-16 17:00N 40°46' W 073°60'0 0.0
2017-Sep-16 16:29N 40°46' W 073°60'0 0.0
2017-Sep-16 16:00N 40°46' W 073°60'0 0.0
2017-Sep-16 15:30N 40°46' W 073°60'0 0.0
2017-Sep-16 15:00N 40°46' W 073°60'0 0.0
2017-Sep-16 14:30N 40°46' W 073°60'0 0.0
2017-Sep-16 14:00N 40°46' W 073°60'0 0.0
2017-Sep-16 13:30N 40°46' W 073°60'0 0.0
2017-Sep-16 13:00N 40°46' W 073°60'0 0.0
2017-Sep-16 12:30N 40°46' W 073°60'0 0.0
2017-Sep-16 12:00N 40°46' W 073°60'0 0.0
2017-Sep-16 11:30N 40°46' W 073°60'1 2.0
2017-Sep-16 11:00N 40°45' W 074°01'1 2.8
2017-Sep-16 10:30N 40°44' W 074°01'4 7.4
2017-Sep-16 10:00N 40°41' W 074°03'0 0.0
2017-Sep-16 09:30N 40°41' W 074°03'0 0.0
2017-Sep-16 09:00N 40°41' W 074°03'3 6.3
2017-Sep-16 08:30N 40°39' W 074°06'1 1.5
2017-Sep-16 08:00N 40°39' W 074°07'0 0.0
2017-Sep-16 07:30N 40°39' W 074°07'0 0.0
2017-Sep-16 07:00N 40°39' W 074°07'0 0.0
2017-Sep-16 06:30N 40°39' W 074°07'0 0.0
2017-Sep-16 06:00N 40°39' W 074°07'0 0.0
2017-Sep-16 05:30N 40°39' W 074°07'0 0.0
2017-Sep-16 05:00N 40°39' W 074°07'0 0.0
2017-Sep-16 04:30N 40°39' W 074°07'0 0.0
2017-Sep-16 04:00N 40°39' W 074°07'0 0.0
2017-Sep-16 03:30N 40°39' W 074°07'0 0.0
2017-Sep-16 03:00N 40°39' W 074°07'1 1.3
2017-Sep-16 02:30N 40°39' W 074°08'3 5.6
2017-Sep-16 02:00N 40°38' W 074°12'0 0.0
2017-Sep-16 01:30N 40°38' W 074°12'0 0.0
2017-Sep-16 01:00N 40°38' W 074°12'0 0.0
2017-Sep-16 00:30N 40°38' W 074°12'0 0.0
2017-Sep-16 00:00N 40°38' W 074°12'0 0.0
2017-Sep-15 23:30N 40°38' W 074°12'0 0.0
2017-Sep-15 23:00N 40°38' W 074°12'0 0.0
2017-Sep-15 22:30N 40°38' W 074°12'1 1.7
2017-Sep-15 22:00N 40°38' W 074°12'2 3.4
2017-Sep-15 21:30N 40°39' W 074°11'3 5.3
2017-Sep-15 21:00N 40°38' W 074°07'0 0.0
2017-Sep-15 20:30N 40°38' W 074°07'0 0.0
2017-Sep-15 20:00N 40°38' W 074°07'0 0.0
2017-Sep-15 19:30N 40°38' W 074°07'0 0.0
2017-Sep-15 19:00N 40°38' W 074°07'2 4.0
2017-Sep-15 18:30N 40°39' W 074°10'4 6.5
2017-Sep-15 17:57N 40°35' W 074°12'4 7.9
2017-Sep-15 17:30N 40°33' W 074°15'1 1.9
2017-Sep-15 16:59N 40°33' W 074°14'4 8.3
2017-Sep-15 16:30N 40°37' W 074°12'2 4.7
2017-Sep-15 16:00N 40°39' W 074°10'2 4.0
2017-Sep-15 15:30N 40°39' W 074°07'1 1.5
2017-Sep-15 15:00N 40°39' W 074°06'0 0.9
2017-Sep-15 14:30N 40°39' W 074°06'0 0.3
2017-Sep-15 14:00N 40°39' W 074°06'1 2.1
2017-Sep-15 13:30N 40°39' W 074°07'0 0.0
2017-Sep-15 13:00N 40°39' W 074°07'0 0.0
2017-Sep-15 12:30N 40°39' W 074°07'0 0.0
2017-Sep-15 12:00N 40°39' W 074°07'0 0.0
2017-Sep-15 11:30N 40°39' W 074°07'0 0.0
2017-Sep-15 11:00N 40°39' W 074°07'0 0.0
2017-Sep-15 10:30N 40°39' W 074°07'0 0.0
2017-Sep-15 10:00N 40°39' W 074°07'0 0.0
2017-Sep-15 09:30N 40°39' W 074°07'0 0.0
2017-Sep-15 09:00N 40°39' W 074°07'0 0.0
2017-Sep-15 08:30N 40°39' W 074°07'0 0.0
2017-Sep-15 08:00N 40°39' W 074°07'0 0.0
2017-Sep-15 07:30N 40°39' W 074°07'0 0.0
2017-Sep-15 07:00N 40°39' W 074°07'0 0.0
2017-Sep-15 06:30N 40°39' W 074°07'1 2.6
2017-Sep-15 06:00N 40°39' W 074°06'0 0.7
2017-Sep-15 05:30N 40°39' W 074°05'2 3.4
2017-Sep-15 05:00N 40°38' W 074°04'0 0.1
2017-Sep-15 04:30N 40°38' W 074°04'0 0.1
2017-Sep-15 04:00N 40°38' W 074°04'0 0.0
2017-Sep-15 03:30N 40°38' W 074°04'0 0.0
2017-Sep-15 03:00N 40°38' W 074°04'0 0.1
2017-Sep-15 02:30N 40°38' W 074°04'0 0.0
2017-Sep-15 02:00N 40°38' W 074°04'0 0.0
2017-Sep-15 01:30N 40°38' W 074°04'0 0.0
2017-Sep-15 01:00N 40°38' W 074°04'0 0.6
2017-Sep-15 00:30N 40°38' W 074°03'2 4.4
2017-Sep-15 00:00N 40°40' W 074°03'1 2.0
2017-Sep-14 23:30N 40°40' W 074°04'3 5.1
2017-Sep-14 23:00N 40°39' W 074°07'0 0.0
2017-Sep-14 22:30N 40°39' W 074°07'0 0.0
2017-Sep-14 22:00N 40°39' W 074°07'1 1.3
2017-Sep-14 21:30N 40°39' W 074°06'3 6.5
2017-Sep-14 21:00N 40°41' W 074°03'1 1.2
2017-Sep-14 20:30N 40°40' W 074°03'3 6.1
2017-Sep-14 20:00N 40°39' W 074°07'3 6.7
2017-Sep-14 19:30N 40°39' W 074°11'1 2.0
2017-Sep-14 19:00N 40°39' W 074°10'2 3.9
2017-Sep-14 18:30N 40°40' W 074°08'1 1.2
2017-Sep-14 18:00N 40°41' W 074°09'1 1.3
2017-Sep-14 17:30N 40°40' W 074°08'2 3.6
2017-Sep-14 17:01N 40°39' W 074°07'0 0.2
2017-Sep-14 16:30N 40°39' W 074°07'0 0.8
2017-Sep-14 16:00N 40°39' W 074°07'0 0.0
2017-Sep-14 15:30N 40°39' W 074°07'0 0.0
2017-Sep-14 15:00N 40°39' W 074°07'0 0.0
2017-Sep-14 14:30N 40°39' W 074°07'0 0.0
2017-Sep-14 14:00N 40°39' W 074°07'0 0.0
2017-Sep-14 13:30N 40°39' W 074°07'0 0.0
2017-Sep-14 13:00N 40°39' W 074°07'0 0.0
2017-Sep-14 12:30N 40°39' W 074°07'0 0.7
2017-Sep-14 12:00N 40°39' W 074°07'3 6.8
2017-Sep-14 11:30N 40°40' W 074°03'2 4.3
2017-Sep-14 11:00N 40°38' W 074°04'0 0.2
2017-Sep-14 10:30N 40°38' W 074°04'3 5.1
2017-Sep-14 10:01N 40°39' W 074°07'0 0.2
2017-Sep-14 09:30N 40°38' W 074°07'0 0.0
2017-Sep-14 09:00N 40°38' W 074°07'0 0.0
2017-Sep-14 08:30N 40°38' W 074°07'0 0.0
2017-Sep-14 08:00N 40°38' W 074°07'0 0.0
2017-Sep-14 07:30N 40°38' W 074°07'0 0.0
2017-Sep-14 07:00N 40°38' W 074°07'0 0.0
2017-Sep-14 06:30N 40°38' W 074°07'0 0.0
2017-Sep-14 06:00N 40°38' W 074°07'0 0.0
2017-Sep-14 05:30N 40°38' W 074°07'0 0.0
2017-Sep-14 05:00N 40°38' W 074°07'0 0.0
2017-Sep-14 04:30N 40°38' W 074°07'0 0.0
2017-Sep-14 04:00N 40°38' W 074°07'0 0.0
2017-Sep-14 03:30N 40°38' W 074°07'0 0.0
2017-Sep-14 03:00N 40°38' W 074°07'0 0.0
2017-Sep-14 02:30N 40°38' W 074°07'0 0.0
2017-Sep-14 02:00N 40°38' W 074°07'0 0.0
2017-Sep-14 01:30N 40°38' W 074°07'0 0.0
2017-Sep-14 01:00N 40°38' W 074°07'0 0.0
2017-Sep-14 00:30N 40°38' W 074°07'0 0.0
2017-Sep-14 00:00N 40°38' W 074°07'0 0.0
2017-Sep-13 23:30N 40°38' W 074°07'0 0.0
2017-Sep-13 23:00N 40°38' W 074°07'0 0.0
2017-Sep-13 22:30N 40°38' W 074°07'0 0.0
2017-Sep-13 22:00N 40°38' W 074°07'0 0.0
2017-Sep-13 21:30N 40°38' W 074°07'0 0.0
2017-Sep-13 21:00N 40°38' W 074°07'0 0.0
2017-Sep-13 20:30N 40°38' W 074°07'0 0.0
2017-Sep-13 20:00N 40°38' W 074°07'0 0.0
2017-Sep-13 19:30N 40°38' W 074°07'0 0.0
2017-Sep-13 19:00N 40°38' W 074°07'0 0.0
2017-Sep-13 18:30N 40°38' W 074°07'0 0.0
2017-Sep-13 18:00N 40°38' W 074°07'0 0.0
2017-Sep-13 17:30N 40°38' W 074°07'0 0.0
2017-Sep-13 17:00N 40°38' W 074°07'0 0.0
2017-Sep-13 16:30N 40°38' W 074°07'0 0.0
2017-Sep-13 16:00N 40°38' W 074°07'0 0.0
2017-Sep-13 15:30N 40°38' W 074°07'0 0.0
2017-Sep-13 15:00N 40°38' W 074°07'0 0.0
2017-Sep-13 14:30N 40°38' W 074°07'0 0.0
2017-Sep-13 14:00N 40°38' W 074°07'0 0.0
2017-Sep-13 13:30N 40°38' W 074°07'0 0.0
2017-Sep-13 13:00N 40°38' W 074°07'0 0.0
2017-Sep-13 12:30N 40°38' W 074°07'0 0.0
2017-Sep-13 12:00N 40°38' W 074°07'0 0.0
2017-Sep-13 11:30N 40°38' W 074°07'0 0.0
2017-Sep-13 11:00N 40°38' W 074°07'0 0.0
2017-Sep-13 10:30N 40°38' W 074°07'0 0.0
2017-Sep-13 10:00N 40°38' W 074°07'0 0.0
2017-Sep-13 09:30N 40°38' W 074°07'0 0.0
2017-Sep-13 09:00N 40°38' W 074°07'0 0.0
2017-Sep-13 08:30N 40°38' W 074°07'1 1.4
2017-Sep-13 08:00N 40°39' W 074°06'4 7.1
2017-Sep-13 07:30N 40°37' W 074°03'5 9.7
2017-Sep-13 07:01N 40°32' W 074°01'5 9.1
2017-Sep-13 06:31N 40°29' W 073°56'4 8.2
2017-Sep-13 06:00N 40°26' W 073°54'5 9.7
2017-Sep-13 05:30N 40°21' W 073°55'5 9.8
2017-Sep-13 05:00N 40°16' W 073°55'5 9.8
2017-Sep-13 04:30N 40°11' W 073°56'5 9.8
2017-Sep-13 04:00N 40°06' W 073°57'5 9.8
2017-Sep-13 03:30N 40°02' W 073°58'5 9.8
2017-Sep-13 02:58N 39°56' W 073°58'5 9.8
2017-Sep-13 02:30N 39°52' W 073°59'5 9.9
2017-Sep-13 02:00N 39°47' W 073°60'5 9.8
2017-Sep-13 01:30N 39°42' W 074°01'5 9.8
2017-Sep-13 01:00N 39°38' W 074°04'5 9.8
2017-Sep-13 00:30N 39°34' W 074°07'5 9.7
2017-Sep-13 00:00N 39°30' W 074°11'5 9.7
2017-Sep-12 23:30N 39°25' W 074°14'5 9.7
2017-Sep-12 23:00N 39°22' W 074°18'5 9.7
2017-Sep-12 22:30N 39°18' W 074°22'5 9.7
2017-Sep-12 22:00N 39°14' W 074°27'5 9.8
2017-Sep-12 21:30N 39°11' W 074°31'5 9.8
2017-Sep-12 21:00N 39°07' W 074°35'5 9.8
2017-Sep-12 20:30N 39°03' W 074°38'5 9.8
2017-Sep-12 19:59N 38°59' W 074°42'5 9.7
2017-Sep-12 19:26N 38°54' W 074°46'4 9.6
2017-Sep-12 18:59N 38°50' W 074°48'5 9.3
2017-Sep-12 18:28N 38°46' W 074°51'7 9.6
2017-Sep-12 17:44N 38°39' W 074°53'2 9.5
2017-Sep-12 17:30N 38°37' W 074°54'5 9.7
2017-Sep-12 17:00N 38°33' W 074°56'510.0
2017-Sep-12 16:31N 38°28' W 074°57'1410.1
2017-Sep-12 15:09N 38°14' W 075°00'210.0
2017-Sep-12 15:00N 38°13' W 075°01'5 9.9
2017-Sep-12 14:28N 38°08' W 075°03'5 9.8
2017-Sep-12 14:00N 38°03' W 075°04'5 9.7
2017-Sep-12 13:30N 37°59' W 075°06'5 9.5
2017-Sep-12 13:00N 37°55' W 075°09'5 9.5
2017-Sep-12 12:30N 37°50' W 075°12'30 9.3
2017-Sep-12 09:15N 37°23' W 075°28'3 8.8
2017-Sep-12 08:57N 37°21' W 075°30'6 8.8
2017-Sep-12 08:18N 37°16' W 075°33'4 8.8
2017-Sep-12 07:52N 37°13' W 075°35'18 8.1
2017-Sep-12 05:39N 36°59' W 075°50'3 7.6
2017-Sep-12 05:18N 36°58' W 075°53'6 7.3
2017-Sep-12 04:31N 36°57' W 075°60'0 7.2
2017-Sep-12 04:30N 36°57' W 076°00'16 7.4
2017-Sep-12 02:20N 36°57' W 076°20'  
Track history (hours):
 
Tides and Currents Weather Stations Pressure Air Temp Water Temp Dewpoint Dewpoint Depression Visibility Wind Speed Wind Dir Waves Ship Positions

Chesapeake Coast

Owner: Dann Marine Towing, LC, Chesapeake City, MD. More information available from US FCC via Universal Licensing System.

Last reported at 2017-Sep-22 02:00 UTC. Time now 2017-Sep-22 18:56 UTC.
Position N 40°40' W 074°00'.

Length 30 m; draft 3.8 m.

Type: Tug. MMSI: 366782000.

Date/timePositionNaut miles runAvg speedWind from/ knotsBaromVisibWave heightAir tempDewpointWater temp
2017-Sep-22 02:00N 40°40' W 074°00'0 0.0
2017-Sep-22 01:30N 40°40' W 074°00'1 1.9
2017-Sep-22 01:00N 40°39' W 074°01'4 8.9
2017-Sep-22 00:30N 40°39' W 074°07'0 0.0
2017-Sep-22 00:00N 40°39' W 074°07'0 0.0
2017-Sep-21 23:30N 40°39' W 074°07'0 0.0
2017-Sep-21 23:00N 40°39' W 074°07'0 0.0
2017-Sep-21 22:30N 40°39' W 074°07'0 0.0
2017-Sep-21 22:00N 40°39' W 074°07'0 0.0
2017-Sep-21 21:30N 40°39' W 074°07'0 0.0
2017-Sep-21 21:00N 40°39' W 074°07'0 0.0
2017-Sep-21 20:30N 40°39' W 074°07'0 0.0
2017-Sep-21 20:00N 40°39' W 074°07'0 0.0
2017-Sep-21 19:30N 40°39' W 074°07'3 5.2
2017-Sep-21 19:00N 40°39' W 074°04'3 5.6
2017-Sep-21 18:30N 40°40' W 074°00'1 2.7
2017-Sep-21 18:00N 40°39' W 074°02'3 5.4
2017-Sep-21 17:30N 40°39' W 074°05'2 3.2
2017-Sep-21 17:00N 40°39' W 074°03'3 6.2
2017-Sep-21 16:30N 40°41' W 074°00'2 4.0
2017-Sep-21 16:00N 40°40' W 074°02'510.5
2017-Sep-21 15:31N 40°39' W 074°09'2 4.8
2017-Sep-21 15:00N 40°41' W 074°09'2 3.4
2017-Sep-21 14:30N 40°39' W 074°09'4 8.2
2017-Sep-21 14:00N 40°39' W 074°03'2 4.9
2017-Sep-21 13:30N 40°40' W 074°00'0 0.6
2017-Sep-21 13:00N 40°40' W 074°00'0 0.0
2017-Sep-21 12:30N 40°40' W 074°00'3 6.3
2017-Sep-21 12:00N 40°39' W 074°04'3 5.0
2017-Sep-21 11:30N 40°39' W 074°07'0 0.0
2017-Sep-21 11:00N 40°39' W 074°07'0 0.0
2017-Sep-21 10:30N 40°39' W 074°07'1 3.0
2017-Sep-21 10:00N 40°39' W 074°05'0 0.3
2017-Sep-21 09:30N 40°39' W 074°06'1 2.3
2017-Sep-21 09:00N 40°39' W 074°07'0 0.5
2017-Sep-21 08:30N 40°39' W 074°07'3 6.1
2017-Sep-21 08:00N 40°42' W 074°08'0 0.7
2017-Sep-21 07:30N 40°42' W 074°09'0 0.2
2017-Sep-21 07:00N 40°42' W 074°09'4 7.1
2017-Sep-21 06:30N 40°39' W 074°11'6 7.5
2017-Sep-21 05:46N 40°33' W 074°13'1 0.9
2017-Sep-21 04:12N 40°33' W 074°15'3 7.8
2017-Sep-21 03:52N 40°35' W 074°13'3 8.4
2017-Sep-21 03:29N 40°38' W 074°12'4 7.9
2017-Sep-21 03:01N 40°39' W 074°07'0 0.1
2017-Sep-21 02:30N 40°39' W 074°07'0 0.0
2017-Sep-21 02:00N 40°39' W 074°07'3 6.3
2017-Sep-21 01:30N 40°39' W 074°03'2 4.7
2017-Sep-21 01:00N 40°40' W 074°00'3 6.4
2017-Sep-21 00:30N 40°39' W 074°05'1 1.7
2017-Sep-21 00:00N 40°39' W 074°06'3 5.6
2017-Sep-20 23:30N 40°41' W 074°08'0 0.5
2017-Sep-20 23:00N 40°41' W 074°09'0 0.4
2017-Sep-20 22:30N 40°41' W 074°09'2 3.7
2017-Sep-20 22:00N 40°39' W 074°09'4 8.4
2017-Sep-20 21:30N 40°39' W 074°03'2 4.9
2017-Sep-20 21:00N 40°40' W 074°00'2 4.6
2017-Sep-20 20:30N 40°39' W 074°03'3 5.6
2017-Sep-20 20:00N 40°39' W 074°07'0 0.0
2017-Sep-20 19:30N 40°39' W 074°07'1 3.0
2017-Sep-20 19:00N 40°39' W 074°05'2 3.9
2017-Sep-20 18:30N 40°39' W 074°02'2 3.9
2017-Sep-20 18:00N 40°40' W 074°00'0 0.0
2017-Sep-20 17:30N 40°40' W 074°00'1 2.8
2017-Sep-20 17:00N 40°39' W 074°02'3 6.0
2017-Sep-20 16:30N 40°39' W 074°06'1 2.4
2017-Sep-20 16:00N 40°39' W 074°07'0 0.0
2017-Sep-20 15:30N 40°39' W 074°07'0 0.0
2017-Sep-20 15:00N 40°39' W 074°07'0 0.0
2017-Sep-20 14:00N 40°39' W 074°07'3 5.8
2017-Sep-20 13:29N 40°39' W 074°11'7 2.5
2017-Sep-20 10:53N 40°33' W 074°15'3 8.3
2017-Sep-20 10:30N 40°35' W 074°12'4 7.6
2017-Sep-20 10:00N 40°39' W 074°10'2 5.0
2017-Sep-20 09:30N 40°39' W 074°07'1 1.3
2017-Sep-20 09:00N 40°39' W 074°08'3 5.3
2017-Sep-20 08:30N 40°38' W 074°12'5 7.6
2017-Sep-20 07:50N 40°33' W 074°13'1 2.1
2017-Sep-20 07:30N 40°33' W 074°14'0 0.1
2017-Sep-20 06:59N 40°33' W 074°14'0 0.1
2017-Sep-20 06:02N 40°33' W 074°15'0 0.9
2017-Sep-20 05:59N 40°33' W 074°14'4 8.6
2017-Sep-20 05:30N 40°37' W 074°12'4 8.2
2017-Sep-20 05:00N 40°39' W 074°07'0 0.1
2017-Sep-20 04:30N 40°39' W 074°07'0 0.0
2017-Sep-20 04:00N 40°39' W 074°07'0 0.0
2017-Sep-20 03:30N 40°39' W 074°07'0 0.0
2017-Sep-20 03:00N 40°39' W 074°07'0 0.0
2017-Sep-20 02:30N 40°39' W 074°07'0 0.0
2017-Sep-20 02:00N 40°39' W 074°07'0 0.0
2017-Sep-20 01:30N 40°39' W 074°07'0 0.1
2017-Sep-20 01:00N 40°39' W 074°07'1 2.4
2017-Sep-20 00:30N 40°39' W 074°06'0 0.8
2017-Sep-20 00:00N 40°39' W 074°05'3 6.5
2017-Sep-19 23:30N 40°40' W 074°01'0 0.1
2017-Sep-19 23:00N 40°40' W 074°01'4 8.8
2017-Sep-19 22:30N 40°39' W 074°07'2 3.7
2017-Sep-19 22:00N 40°40' W 074°09'0 0.6
2017-Sep-19 21:30N 40°39' W 074°09'2 3.3
2017-Sep-19 21:00N 40°39' W 074°07'1 2.3
2017-Sep-19 20:30N 40°39' W 074°05'0 0.4
2017-Sep-19 20:00N 40°39' W 074°05'1 1.8
2017-Sep-19 19:30N 40°39' W 074°06'0 0.1
2017-Sep-19 19:00N 40°39' W 074°06'0 0.2
2017-Sep-19 18:30N 40°39' W 074°06'0 0.0
2017-Sep-19 18:00N 40°39' W 074°06'1 2.1
2017-Sep-19 17:30N 40°39' W 074°07'0 0.0
2017-Sep-19 17:00N 40°39' W 074°07'0 0.0
2017-Sep-19 16:30N 40°39' W 074°07'0 0.0
2017-Sep-19 16:00N 40°39' W 074°07'0 0.0
2017-Sep-19 15:30N 40°39' W 074°07'0 0.0
2017-Sep-19 15:00N 40°39' W 074°07'0 0.0
2017-Sep-19 14:30N 40°39' W 074°07'0 0.0
2017-Sep-19 14:00N 40°39' W 074°07'0 0.0
2017-Sep-19 13:30N 40°39' W 074°07'0 0.0
2017-Sep-19 13:00N 40°39' W 074°07'0 0.0
2017-Sep-19 12:30N 40°39' W 074°07'0 0.5
2017-Sep-19 12:00N 40°39' W 074°07'0 0.0
2017-Sep-19 11:30N 40°39' W 074°07'1 1.9
2017-Sep-19 11:00N 40°39' W 074°06'1 2.4
2017-Sep-19 10:30N 40°39' W 074°07'0 0.0
2017-Sep-19 10:00N 40°39' W 074°07'0 0.0
2017-Sep-19 09:30N 40°39' W 074°07'0 0.0
2017-Sep-19 09:00N 40°39' W 074°07'4 7.4
2017-Sep-19 08:30N 40°39' W 074°02'2 3.6
2017-Sep-19 08:00N 40°40' W 074°01'3 5.8
2017-Sep-19 07:31N 40°39' W 074°04'1 2.1
2017-Sep-19 07:00N 40°39' W 074°05'0 0.0
2017-Sep-19 06:30N 40°39' W 074°05'0 0.0
2017-Sep-19 06:00N 40°39' W 074°05'0 0.1
2017-Sep-19 05:30N 40°39' W 074°05'1 1.5
2017-Sep-19 05:00N 40°39' W 074°06'0 0.0
2017-Sep-19 04:30N 40°39' W 074°06'0 0.0
2017-Sep-19 04:00N 40°39' W 074°06'1 1.5
2017-Sep-19 03:30N 40°39' W 074°05'2 3.5
2017-Sep-19 03:00N 40°39' W 074°07'0 0.2
2017-Sep-19 02:30N 40°39' W 074°07'0 0.0
2017-Sep-19 02:00N 40°39' W 074°07'0 0.0
2017-Sep-19 01:30N 40°39' W 074°07'0 0.0
2017-Sep-19 01:00N 40°39' W 074°07'0 0.0
2017-Sep-19 00:30N 40°39' W 074°07'0 0.0
2017-Sep-19 00:00N 40°39' W 074°07'1 1.9
2017-Sep-18 23:30N 40°39' W 074°06'3 5.8
2017-Sep-18 23:00N 40°41' W 074°03'2 4.7
2017-Sep-18 22:30N 40°39' W 074°05'3 5.1
2017-Sep-18 22:00N 40°40' W 074°09'0 0.8
2017-Sep-18 21:30N 40°39' W 074°09'3 6.7
2017-Sep-18 21:00N 40°40' W 074°05'0 0.1
2017-Sep-18 20:30N 40°40' W 074°05'0 0.4
2017-Sep-18 20:00N 40°40' W 074°04'2 3.9
2017-Sep-18 19:30N 40°39' W 074°02'2 3.5
2017-Sep-18 19:00N 40°40' W 074°00'3 6.9
2017-Sep-18 18:30N 40°39' W 074°05'0 0.6
2017-Sep-18 18:01N 40°39' W 074°05'1 2.9
2017-Sep-18 17:30N 40°39' W 074°07'0 0.4
2017-Sep-18 17:00N 40°39' W 074°07'0 0.0
2017-Sep-18 16:30N 40°39' W 074°07'0 0.0
2017-Sep-18 16:00N 40°39' W 074°07'0 0.0
2017-Sep-18 15:30N 40°39' W 074°07'0 0.0
2017-Sep-18 15:00N 40°39' W 074°07'0 0.0
2017-Sep-18 14:30N 40°39' W 074°07'1 1.6
2017-Sep-18 14:00N 40°39' W 074°08'3 5.7
2017-Sep-18 13:30N 40°41' W 074°08'2 4.3
2017-Sep-18 13:00N 40°39' W 074°09'3 5.5
2017-Sep-18 12:30N 40°39' W 074°05'0 0.6
2017-Sep-18 12:00N 40°39' W 074°05'2 3.5
2017-Sep-18 11:30N 40°39' W 074°07'0 0.1
2017-Sep-18 11:00N 40°39' W 074°07'0 0.0
2017-Sep-18 10:30N 40°39' W 074°07'0 0.0
2017-Sep-18 10:00N 40°39' W 074°07'0 0.0
2017-Sep-18 09:30N 40°39' W 074°07'0 0.0
2017-Sep-18 09:00N 40°39' W 074°07'0 0.0
2017-Sep-18 08:30N 40°39' W 074°07'0 0.0
2017-Sep-18 08:00N 40°39' W 074°07'0 0.0
2017-Sep-18 07:30N 40°39' W 074°07'0 0.0
2017-Sep-18 07:00N 40°39' W 074°07'0 0.0
2017-Sep-18 06:30N 40°39' W 074°07'0 0.0
2017-Sep-18 06:00N 40°39' W 074°07'0 0.0
2017-Sep-18 05:30N 40°39' W 074°07'5 9.1
2017-Sep-18 05:00N 40°39' W 074°01'1 1.8
2017-Sep-18 04:30N 40°40' W 074°00'0 0.1
2017-Sep-18 04:00N 40°40' W 074°00'0 0.2
2017-Sep-18 03:30N 40°40' W 074°00'0 0.0
2017-Sep-18 03:00N 40°40' W 074°00'0 0.0
2017-Sep-18 02:30N 40°40' W 074°00'0 0.0
2017-Sep-18 02:00N 40°40' W 074°01'1 1.2
2017-Sep-18 01:30N 40°40' W 074°01'5 9.3
2017-Sep-18 01:00N 40°39' W 074°07'0 0.3
2017-Sep-18 00:30N 40°38' W 074°07'0 0.0
2017-Sep-18 00:00N 40°38' W 074°07'0 0.0
2017-Sep-17 23:30N 40°38' W 074°07'0 0.0
2017-Sep-17 23:00N 40°38' W 074°07'0 0.0
2017-Sep-17 22:30N 40°38' W 074°07'0 0.0
2017-Sep-17 22:00N 40°38' W 074°07'0 0.0
2017-Sep-17 21:30N 40°38' W 074°07'0 0.0
2017-Sep-17 21:00N 40°38' W 074°07'0 0.0
2017-Sep-17 20:30N 40°38' W 074°07'0 0.0
2017-Sep-17 20:00N 40°38' W 074°07'0 0.0
2017-Sep-17 19:30N 40°38' W 074°07'0 0.0
2017-Sep-17 19:00N 40°38' W 074°07'0 0.0
2017-Sep-17 18:30N 40°38' W 074°07'0 0.0
2017-Sep-17 18:00N 40°38' W 074°07'0 0.0
2017-Sep-17 17:30N 40°38' W 074°07'0 0.0
2017-Sep-17 17:00N 40°38' W 074°07'0 0.0
2017-Sep-17 16:30N 40°38' W 074°07'0 0.0
2017-Sep-17 16:00N 40°38' W 074°07'0 0.0
2017-Sep-17 15:29N 40°38' W 074°07'0 0.0
2017-Sep-17 15:00N 40°38' W 074°07'0 0.0
2017-Sep-17 14:30N 40°38' W 074°07'0 0.0
2017-Sep-17 14:00N 40°38' W 074°07'0 0.0
2017-Sep-17 13:30N 40°38' W 074°07'0 0.0
2017-Sep-17 13:00N 40°38' W 074°07'0 0.0
2017-Sep-17 12:30N 40°38' W 074°07'0 0.0
2017-Sep-17 12:00N 40°38' W 074°07'0 0.0
2017-Sep-17 11:30N 40°38' W 074°07'0 0.0
2017-Sep-17 11:00N 40°38' W 074°07'0 0.0
2017-Sep-17 10:30N 40°38' W 074°07'0 0.0
2017-Sep-17 10:00N 40°38' W 074°07'0 0.0
2017-Sep-17 09:30N 40°38' W 074°07'0 0.0
2017-Sep-17 09:00N 40°38' W 074°07'0 0.0
2017-Sep-17 08:30N 40°38' W 074°07'0 0.0
2017-Sep-17 08:00N 40°38' W 074°07'0 0.0
2017-Sep-17 07:30N 40°38' W 074°07'0 0.0
2017-Sep-17 07:00N 40°38' W 074°07'0 0.0
2017-Sep-17 06:30N 40°38' W 074°07'0 0.0
2017-Sep-17 06:00N 40°38' W 074°07'0 0.7
2017-Sep-17 05:30N 40°39' W 074°08'4 7.2
2017-Sep-17 04:56N 40°36' W 074°12'3 7.4
2017-Sep-17 04:30N 40°33' W 074°14'0 0.1
2017-Sep-17 03:50N 40°33' W 074°14'0 0.5
2017-Sep-17 03:30N 40°33' W 074°14'4 7.9
2017-Sep-17 03:00N 40°37' W 074°12'4 7.6
2017-Sep-17 02:30N 40°39' W 074°08'0 0.7
2017-Sep-17 02:00N 40°38' W 074°07'0 0.0
2017-Sep-17 01:30N 40°38' W 074°07'0 0.0
2017-Sep-17 01:00N 40°38' W 074°07'0 0.0
2017-Sep-17 00:30N 40°38' W 074°07'0 0.0
2017-Sep-17 00:00N 40°38' W 074°07'0 0.0
2017-Sep-16 23:30N 40°38' W 074°07'0 0.0
2017-Sep-16 23:00N 40°38' W 074°07'0 0.0
2017-Sep-16 22:30N 40°38' W 074°07'0 0.0
2017-Sep-16 22:00N 40°38' W 074°07'0 0.0
2017-Sep-16 21:30N 40°38' W 074°07'0 0.0
2017-Sep-16 21:00N 40°38' W 074°07'0 0.0
2017-Sep-16 20:30N 40°38' W 074°07'0 0.0
2017-Sep-16 20:00N 40°38' W 074°07'0 0.0
2017-Sep-16 19:30N 40°38' W 074°07'0 0.3
2017-Sep-16 19:01N 40°39' W 074°07'510.0
2017-Sep-16 18:30N 40°40' W 074°01'0 0.3
2017-Sep-16 18:00N 40°40' W 074°01'4 7.3
2017-Sep-16 17:30N 40°43' W 074°01'3 5.6
2017-Sep-16 17:00N 40°46' W 073°60'0 0.0
2017-Sep-16 16:29N 40°46' W 073°60'0 0.0
2017-Sep-16 16:00N 40°46' W 073°60'0 0.0
2017-Sep-16 15:30N 40°46' W 073°60'0 0.0
2017-Sep-16 15:00N 40°46' W 073°60'0 0.0
2017-Sep-16 14:30N 40°46' W 073°60'0 0.0
2017-Sep-16 14:00N 40°46' W 073°60'0 0.0
2017-Sep-16 13:30N 40°46' W 073°60'0 0.0
2017-Sep-16 13:00N 40°46' W 073°60'0 0.0
2017-Sep-16 12:30N 40°46' W 073°60'0 0.0
2017-Sep-16 12:00N 40°46' W 073°60'0 0.0
2017-Sep-16 11:30N 40°46' W 073°60'1 2.0
2017-Sep-16 11:00N 40°45' W 074°01'1 2.8
2017-Sep-16 10:30N 40°44' W 074°01'4 7.4
2017-Sep-16 10:00N 40°41' W 074°03'0 0.0
2017-Sep-16 09:30N 40°41' W 074°03'0 0.0
2017-Sep-16 09:00N 40°41' W 074°03'3 6.3
2017-Sep-16 08:30N 40°39' W 074°06'1 1.5
2017-Sep-16 08:00N 40°39' W 074°07'0 0.0
2017-Sep-16 07:30N 40°39' W 074°07'0 0.0
2017-Sep-16 07:00N 40°39' W 074°07'0 0.0
2017-Sep-16 06:30N 40°39' W 074°07'0 0.0
2017-Sep-16 06:00N 40°39' W 074°07'0 0.0
2017-Sep-16 05:30N 40°39' W 074°07'0 0.0
2017-Sep-16 05:00N 40°39' W 074°07'0 0.0
2017-Sep-16 04:30N 40°39' W 074°07'0 0.0
2017-Sep-16 04:00N 40°39' W 074°07'0 0.0
2017-Sep-16 03:30N 40°39' W 074°07'0 0.0
2017-Sep-16 03:00N 40°39' W 074°07'1 1.3
2017-Sep-16 02:30N 40°39' W 074°08'3 5.6
2017-Sep-16 02:00N 40°38' W 074°12'0 0.0
2017-Sep-16 01:30N 40°38' W 074°12'0 0.0
2017-Sep-16 01:00N 40°38' W 074°12'0 0.0
2017-Sep-16 00:30N 40°38' W 074°12'0 0.0
2017-Sep-16 00:00N 40°38' W 074°12'0 0.0
2017-Sep-15 23:30N 40°38' W 074°12'0 0.0
2017-Sep-15 23:00N 40°38' W 074°12'0 0.0
2017-Sep-15 22:30N 40°38' W 074°12'1 1.7
2017-Sep-15 22:00N 40°38' W 074°12'2 3.4
2017-Sep-15 21:30N 40°39' W 074°11'3 5.3
2017-Sep-15 21:00N 40°38' W 074°07'0 0.0
2017-Sep-15 20:30N 40°38' W 074°07'0 0.0
2017-Sep-15 20:00N 40°38' W 074°07'0 0.0
2017-Sep-15 19:30N 40°38' W 074°07'0 0.0
2017-Sep-15 19:00N 40°38' W 074°07'2 4.0
2017-Sep-15 18:30N 40°39' W 074°10'4 6.5
2017-Sep-15 17:57N 40°35' W 074°12'4 7.9
2017-Sep-15 17:30N 40°33' W 074°15'1 1.9
2017-Sep-15 16:59N 40°33' W 074°14'4 8.3
2017-Sep-15 16:30N 40°37' W 074°12'2 4.7
2017-Sep-15 16:00N 40°39' W 074°10'2 4.0
2017-Sep-15 15:30N 40°39' W 074°07'1 1.5
2017-Sep-15 15:00N 40°39' W 074°06'0 0.9
2017-Sep-15 14:30N 40°39' W 074°06'0 0.3
2017-Sep-15 14:00N 40°39' W 074°06'1 2.1
2017-Sep-15 13:30N 40°39' W 074°07'0 0.0
2017-Sep-15 13:00N 40°39' W 074°07'0 0.0
2017-Sep-15 12:30N 40°39' W 074°07'0 0.0
2017-Sep-15 12:00N 40°39' W 074°07'0 0.0
2017-Sep-15 11:30N 40°39' W 074°07'0 0.0
2017-Sep-15 11:00N 40°39' W 074°07'0 0.0
2017-Sep-15 10:30N 40°39' W 074°07'0 0.0
2017-Sep-15 10:00N 40°39' W 074°07'0 0.0
2017-Sep-15 09:30N 40°39' W 074°07'0 0.0
2017-Sep-15 09:00N 40°39' W 074°07'0 0.0
2017-Sep-15 08:30N 40°39' W 074°07'0 0.0
2017-Sep-15 08:00N 40°39' W 074°07'0 0.0
2017-Sep-15 07:30N 40°39' W 074°07'0 0.0
2017-Sep-15 07:00N 40°39' W 074°07'0 0.0
2017-Sep-15 06:30N 40°39' W 074°07'1 2.6
2017-Sep-15 06:00N 40°39' W 074°06'0 0.7
2017-Sep-15 05:30N 40°39' W 074°05'2 3.4
2017-Sep-15 05:00N 40°38' W 074°04'0 0.1
2017-Sep-15 04:30N 40°38' W 074°04'0 0.1
2017-Sep-15 04:00N 40°38' W 074°04'0 0.0
2017-Sep-15 03:30N 40°38' W 074°04'0 0.0
2017-Sep-15 03:00N 40°38' W 074°04'0 0.1
2017-Sep-15 02:30N 40°38' W 074°04'0 0.0
2017-Sep-15 02:00N 40°38' W 074°04'0 0.0
2017-Sep-15 01:30N 40°38' W 074°04'0 0.0
2017-Sep-15 01:00N 40°38' W 074°04'0 0.6
2017-Sep-15 00:30N 40°38' W 074°03'2 4.4
2017-Sep-15 00:00N 40°40' W 074°03'1 2.0
2017-Sep-14 23:30N 40°40' W 074°04'3 5.1
2017-Sep-14 23:00N 40°39' W 074°07'0 0.0
2017-Sep-14 22:30N 40°39' W 074°07'0 0.0
2017-Sep-14 22:00N 40°39' W 074°07'1 1.3
2017-Sep-14 21:30N 40°39' W 074°06'3 6.5
2017-Sep-14 21:00N 40°41' W 074°03'1 1.2
2017-Sep-14 20:30N 40°40' W 074°03'3 6.1
2017-Sep-14 20:00N 40°39' W 074°07'3 6.7
2017-Sep-14 19:30N 40°39' W 074°11'1 2.0
2017-Sep-14 19:00N 40°39' W 074°10'2 3.9
2017-Sep-14 18:30N 40°40' W 074°08'1 1.2
2017-Sep-14 18:00N 40°41' W 074°09'1 1.3
2017-Sep-14 17:30N 40°40' W 074°08'2 3.6
2017-Sep-14 17:01N 40°39' W 074°07'0 0.2
2017-Sep-14 16:30N 40°39' W 074°07'0 0.8
2017-Sep-14 16:00N 40°39' W 074°07'0 0.0
2017-Sep-14 15:30N 40°39' W 074°07'0 0.0
2017-Sep-14 15:00N 40°39' W 074°07'0 0.0
2017-Sep-14 14:30N 40°39' W 074°07'0 0.0
2017-Sep-14 14:00N 40°39' W 074°07'0 0.0
2017-Sep-14 13:30N 40°39' W 074°07'0 0.0
2017-Sep-14 13:00N 40°39' W 074°07'0 0.0
2017-Sep-14 12:30N 40°39' W 074°07'0 0.7
2017-Sep-14 12:00N 40°39' W 074°07'3 6.8
2017-Sep-14 11:30N 40°40' W 074°03'2 4.3
2017-Sep-14 11:00N 40°38' W 074°04'0 0.2
2017-Sep-14 10:30N 40°38' W 074°04'3 5.1
2017-Sep-14 10:01N 40°39' W 074°07'0 0.2
2017-Sep-14 09:30N 40°38' W 074°07'0 0.0
2017-Sep-14 09:00N 40°38' W 074°07'0 0.0
2017-Sep-14 08:30N 40°38' W 074°07'0 0.0
2017-Sep-14 08:00N 40°38' W 074°07'0 0.0
2017-Sep-14 07:30N 40°38' W 074°07'0 0.0
2017-Sep-14 07:00N 40°38' W 074°07'0 0.0
2017-Sep-14 06:30N 40°38' W 074°07'0 0.0
2017-Sep-14 06:00N 40°38' W 074°07'0 0.0
2017-Sep-14 05:30N 40°38' W 074°07'0 0.0
2017-Sep-14 05:00N 40°38' W 074°07'0 0.0
2017-Sep-14 04:30N 40°38' W 074°07'0 0.0
2017-Sep-14 04:00N 40°38' W 074°07'0 0.0
2017-Sep-14 03:30N 40°38' W 074°07'0 0.0
2017-Sep-14 03:00N 40°38' W 074°07'0 0.0
2017-Sep-14 02:30N 40°38' W 074°07'0 0.0
2017-Sep-14 02:00N 40°38' W 074°07'0 0.0
2017-Sep-14 01:30N 40°38' W 074°07'0 0.0
2017-Sep-14 01:00N 40°38' W 074°07'0 0.0
2017-Sep-14 00:30N 40°38' W 074°07'0 0.0
2017-Sep-14 00:00N 40°38' W 074°07'0 0.0
2017-Sep-13 23:30N 40°38' W 074°07'0 0.0
2017-Sep-13 23:00N 40°38' W 074°07'0 0.0
2017-Sep-13 22:30N 40°38' W 074°07'0 0.0
2017-Sep-13 22:00N 40°38' W 074°07'0 0.0
2017-Sep-13 21:30N 40°38' W 074°07'0 0.0
2017-Sep-13 21:00N 40°38' W 074°07'0 0.0
2017-Sep-13 20:30N 40°38' W 074°07'0 0.0
2017-Sep-13 20:00N 40°38' W 074°07'0 0.0
2017-Sep-13 19:30N 40°38' W 074°07'0 0.0
2017-Sep-13 19:00N 40°38' W 074°07'0 0.0
2017-Sep-13 18:30N 40°38' W 074°07'0 0.0
2017-Sep-13 18:00N 40°38' W 074°07'0 0.0
2017-Sep-13 17:30N 40°38' W 074°07'0 0.0
2017-Sep-13 17:00N 40°38' W 074°07'0 0.0
2017-Sep-13 16:30N 40°38' W 074°07'0 0.0
2017-Sep-13 16:00N 40°38' W 074°07'0 0.0
2017-Sep-13 15:30N 40°38' W 074°07'0 0.0
2017-Sep-13 15:00N 40°38' W 074°07'0 0.0
2017-Sep-13 14:30N 40°38' W 074°07'0 0.0
2017-Sep-13 14:00N 40°38' W 074°07'0 0.0
2017-Sep-13 13:30N 40°38' W 074°07'0 0.0
2017-Sep-13 13:00N 40°38' W 074°07'0 0.0
2017-Sep-13 12:30N 40°38' W 074°07'0 0.0
2017-Sep-13 12:00N 40°38' W 074°07'0 0.0
2017-Sep-13 11:30N 40°38' W 074°07'0 0.0
2017-Sep-13 11:00N 40°38' W 074°07'0 0.0
2017-Sep-13 10:30N 40°38' W 074°07'0 0.0
2017-Sep-13 10:00N 40°38' W 074°07'0 0.0
2017-Sep-13 09:30N 40°38' W 074°07'0 0.0
2017-Sep-13 09:00N 40°38' W 074°07'0 0.0
2017-Sep-13 08:30N 40°38' W 074°07'1 1.4
2017-Sep-13 08:00N 40°39' W 074°06'4 7.1
2017-Sep-13 07:30N 40°37' W 074°03'5 9.7
2017-Sep-13 07:01N 40°32' W 074°01'5 9.1
2017-Sep-13 06:31N 40°29' W 073°56'4 8.2
2017-Sep-13 06:00N 40°26' W 073°54'5 9.7
2017-Sep-13 05:30N 40°21' W 073°55'5 9.8
2017-Sep-13 05:00N 40°16' W 073°55'5 9.8
2017-Sep-13 04:30N 40°11' W 073°56'5 9.8
2017-Sep-13 04:00N 40°06' W 073°57'5 9.8
2017-Sep-13 03:30N 40°02' W 073°58'5 9.8
2017-Sep-13 02:58N 39°56' W 073°58'5 9.8
2017-Sep-13 02:30N 39°52' W 073°59'5 9.9
2017-Sep-13 02:00N 39°47' W 073°60'5 9.8
2017-Sep-13 01:30N 39°42' W 074°01'5 9.8
2017-Sep-13 01:00N 39°38' W 074°04'5 9.8
2017-Sep-13 00:30N 39°34' W 074°07'5 9.7
2017-Sep-13 00:00N 39°30' W 074°11'5 9.7
2017-Sep-12 23:30N 39°25' W 074°14'5 9.7
2017-Sep-12 23:00N 39°22' W 074°18'5 9.7
2017-Sep-12 22:30N 39°18' W 074°22'5 9.7
2017-Sep-12 22:00N 39°14' W 074°27'5 9.8
2017-Sep-12 21:30N 39°11' W 074°31'5 9.8
2017-Sep-12 21:00N 39°07' W 074°35'5 9.8
2017-Sep-12 20:30N 39°03' W 074°38'5 9.8
2017-Sep-12 19:59N 38°59' W 074°42'5 9.7
2017-Sep-12 19:26N 38°54' W 074°46'4 9.6
2017-Sep-12 18:59N 38°50' W 074°48'5 9.3
2017-Sep-12 18:28N 38°46' W 074°51'7 9.6
2017-Sep-12 17:44N 38°39' W 074°53'2 9.5
2017-Sep-12 17:30N 38°37' W 074°54'5 9.7
2017-Sep-12 17:00N 38°33' W 074°56'510.0
2017-Sep-12 16:31N 38°28' W 074°57'1410.1
2017-Sep-12 15:09N 38°14' W 075°00'210.0
2017-Sep-12 15:00N 38°13' W 075°01'5 9.9
2017-Sep-12 14:28N 38°08' W 075°03'5 9.8
2017-Sep-12 14:00N 38°03' W 075°04'5 9.7
2017-Sep-12 13:30N 37°59' W 075°06'5 9.5
2017-Sep-12 13:00N 37°55' W 075°09'5 9.5
2017-Sep-12 12:30N 37°50' W 075°12'30 9.3
2017-Sep-12 09:15N 37°23' W 075°28'3 8.8
2017-Sep-12 08:57N 37°21' W 075°30'6 8.8
2017-Sep-12 08:18N 37°16' W 075°33'4 8.8
2017-Sep-12 07:52N 37°13' W 075°35'18 8.1
2017-Sep-12 05:39N 36°59' W 075°50'3 7.6
2017-Sep-12 05:18N 36°58' W 075°53'6 7.3
2017-Sep-12 04:31N 36°57' W 075°60'0 7.2
2017-Sep-12 04:30N 36°57' W 076°00'16 7.4
2017-Sep-12 02:20N 36°57' W 076°20'  

Dump ship's entire track history